메인 페이지
METAR-TAF:

METAR-TAF

공항 :

바타, 적도 기니

위도: 1-54-15N, 경도: 9-48-15E, 고도: 4m

현재 날씨관측

예보는 1 시간 15분 전, 08:00시(UTC)에 발표되었습니다.
남남동6kt
온도 28°C
습도 89%
기압 1014 hPa
시정 10km 이상
고도 1000ft 상공 구름 보통

METAR: FGBT 020800Z 15006KT 9999 SCT010 28/26 Q1014

시각: 10:15 (09:15 UTC)

예보

예보는 4 시간 15분 전, 05:00시(UTC)에 발표되었습니다.
예보 대상 시간: 02일 06시부터 03일 06시까지 (UTC)
남서6kt
고도 1000ft 상공 구름 보통
일시적
02일 14시부터 02일 22시까지 (UTC)
고도 800ft 상공 구름 많음
고도 2000ft 상공 구름 조금, 적란운.
뇌우

TAF: FGBT 020500Z 0206/0306 22006KT SCT010 TEMPO 0214/0222 TS BKN008 FEW020CB

4,000개 이상의 공항 관측 자료 및 예보 (METAR 및 TAF 보고).

지도상에서 검색 가능한 기상관측소가 노란 점과 빨간 점으로 표시되어 있습니다.

기상관측소 명을 보려면 표시 위로 마우스를 이동하세요.

날씨 관측과 예보를 보려면 클릭하세요.

지도 변경 : 확대하려면 엑스 표시가 있는 녹색 버튼, 축소하려면 빼기 표시가 있는 녹색 버튼, 다음 페이지의 지도를 보려면 녹색 화살표를 클릭하세요.


METAR-TAF: